sensor_id;sensor_type;location;lat;lon;timestamp;P1;durP1;ratioP1;P2;durP2;ratioP2
1428;SDS011;708;51.442;7.016;2022-08-30T00:00:52;6.68;;;5.53;;
1428;SDS011;708;51.442;7.016;2022-08-30T00:03:28;6.35;;;4.93;;
1428;SDS011;708;51.442;7.016;2022-08-30T00:05:55;6.82;;;5.50;;
1428;SDS011;708;51.442;7.016;2022-08-30T00:08:24;6.07;;;5.43;;
1428;SDS011;708;51.442;7.016;2022-08-30T00:10:51;8.10;;;5.45;;
1428;SDS011;708;51.442;7.016;2022-08-30T00:13:19;8.80;;;5.75;;
1428;SDS011;708;51.442;7.016;2022-08-30T00:15:47;8.77;;;5.40;;
1428;SDS011;708;51.442;7.016;2022-08-30T00:18:15;6.88;;;4.90;;
1428;SDS011;708;51.442;7.016;2022-08-30T00:20:43;9.07;;;5.88;;
1428;SDS011;708;51.442;7.016;2022-08-30T00:23:11;8.43;;;5.28;;
1428;SDS011;708;51.442;7.016;2022-08-30T00:25:41;7.38;;;5.13;;
1428;SDS011;708;51.442;7.016;2022-08-30T00:28:11;6.82;;;5.18;;
1428;SDS011;708;51.442;7.016;2022-08-30T00:30:39;10.38;;;4.60;;
1428;SDS011;708;51.442;7.016;2022-08-30T00:33:08;5.78;;;5.18;;
1428;SDS011;708;51.442;7.016;2022-08-30T00:35:36;5.93;;;5.28;;
1428;SDS011;708;51.442;7.016;2022-08-30T00:38:06;5.57;;;5.05;;
1428;SDS011;708;51.442;7.016;2022-08-30T00:40:33;8.63;;;4.95;;
1428;SDS011;708;51.442;7.016;2022-08-30T00:43:01;6.32;;;5.65;;
1428;SDS011;708;51.442;7.016;2022-08-30T00:45:32;7.55;;;4.80;;
1428;SDS011;708;51.442;7.016;2022-08-30T00:48:01;7.30;;;5.43;;
1428;SDS011;708;51.442;7.016;2022-08-30T00:50:30;9.50;;;5.50;;
1428;SDS011;708;51.442;7.016;2022-08-30T00:53:02;5.70;;;5.13;;
1428;SDS011;708;51.442;7.016;2022-08-30T00:55:31;8.75;;;5.47;;
1428;SDS011;708;51.442;7.016;2022-08-30T00:57:59;6.22;;;4.80;;
1428;SDS011;708;51.442;7.016;2022-08-30T01:00:28;6.53;;;4.80;;
1428;SDS011;708;51.442;7.016;2022-08-30T01:02:55;5.57;;;5.00;;
1428;SDS011;708;51.442;7.016;2022-08-30T01:05:25;7.93;;;5.80;;
1428;SDS011;708;51.442;7.016;2022-08-30T01:07:52;6.03;;;5.38;;
1428;SDS011;708;51.442;7.016;2022-08-30T01:10:20;7.40;;;4.80;;
1428;SDS011;708;51.442;7.016;2022-08-30T01:12:47;5.80;;;4.75;;
1428;SDS011;708;51.442;7.016;2022-08-30T01:15:16;9.13;;;5.95;;
1428;SDS011;708;51.442;7.016;2022-08-30T01:17:43;7.07;;;5.05;;
1428;SDS011;708;51.442;7.016;2022-08-30T01:20:14;6.05;;;5.07;;
1428;SDS011;708;51.442;7.016;2022-08-30T01:22:54;6.40;;;5.75;;
1428;SDS011;708;51.442;7.016;2022-08-30T01:25:27;6.70;;;4.93;;
1428;SDS011;708;51.442;7.016;2022-08-30T01:27:56;5.07;;;4.57;;
1428;SDS011;708;51.442;7.016;2022-08-30T01:30:25;5.85;;;4.57;;
1428;SDS011;708;51.442;7.016;2022-08-30T01:32:55;6.90;;;4.90;;
1428;SDS011;708;51.442;7.016;2022-08-30T01:35:23;6.97;;;5.75;;
1428;SDS011;708;51.442;7.016;2022-08-30T01:37:51;6.22;;;4.53;;
1428;SDS011;708;51.442;7.016;2022-08-30T01:40:19;6.00;;;5.10;;
1428;SDS011;708;51.442;7.016;2022-08-30T01:42:47;6.40;;;5.38;;
1428;SDS011;708;51.442;7.016;2022-08-30T01:45:14;5.60;;;4.70;;
1428;SDS011;708;51.442;7.016;2022-08-30T01:47:41;6.70;;;4.35;;
1428;SDS011;708;51.442;7.016;2022-08-30T01:50:08;5.95;;;4.32;;
1428;SDS011;708;51.442;7.016;2022-08-30T01:52:36;6.68;;;4.63;;
1428;SDS011;708;51.442;7.016;2022-08-30T01:55:04;7.07;;;4.60;;
1428;SDS011;708;51.442;7.016;2022-08-30T01:57:33;8.50;;;4.80;;
1428;SDS011;708;51.442;7.016;2022-08-30T02:00:00;5.85;;;4.43;;
1428;SDS011;708;51.442;7.016;2022-08-30T02:02:27;5.25;;;4.10;;
1428;SDS011;708;51.442;7.016;2022-08-30T02:04:55;5.13;;;4.65;;
1428;SDS011;708;51.442;7.016;2022-08-30T02:07:22;5.65;;;4.35;;
1428;SDS011;708;51.442;7.016;2022-08-30T02:09:49;8.95;;;5.10;;
1428;SDS011;708;51.442;7.016;2022-08-30T02:12:17;5.18;;;4.68;;
1428;SDS011;708;51.442;7.016;2022-08-30T02:14:46;6.35;;;4.68;;
1428;SDS011;708;51.442;7.016;2022-08-30T02:17:13;6.00;;;5.13;;
1428;SDS011;708;51.442;7.016;2022-08-30T02:19:43;6.25;;;4.25;;
1428;SDS011;708;51.442;7.016;2022-08-30T02:22:11;7.40;;;4.55;;
1428;SDS011;708;51.442;7.016;2022-08-30T02:24:38;5.47;;;4.97;;
1428;SDS011;708;51.442;7.016;2022-08-30T02:27:05;5.68;;;4.38;;
1428;SDS011;708;51.442;7.016;2022-08-30T02:29:32;6.35;;;4.47;;
1428;SDS011;708;51.442;7.016;2022-08-30T02:32:00;5.10;;;4.65;;
1428;SDS011;708;51.442;7.016;2022-08-30T02:34:27;7.78;;;4.40;;
1428;SDS011;708;51.442;7.016;2022-08-30T02:36:54;9.25;;;5.20;;
1428;SDS011;708;51.442;7.016;2022-08-30T02:39:22;4.70;;;4.30;;
1428;SDS011;708;51.442;7.016;2022-08-30T02:41:49;8.70;;;5.50;;
1428;SDS011;708;51.442;7.016;2022-08-30T02:44:16;4.70;;;4.25;;
1428;SDS011;708;51.442;7.016;2022-08-30T02:46:43;5.82;;;4.82;;
1428;SDS011;708;51.442;7.016;2022-08-30T02:49:11;4.80;;;4.28;;
1428;SDS011;708;51.442;7.016;2022-08-30T02:51:38;6.55;;;4.70;;
1428;SDS011;708;51.442;7.016;2022-08-30T02:54:05;7.15;;;4.68;;
1428;SDS011;708;51.442;7.016;2022-08-30T02:56:32;5.57;;;4.50;;
1428;SDS011;708;51.442;7.016;2022-08-30T02:58:59;8.13;;;5.22;;
1428;SDS011;708;51.442;7.016;2022-08-30T03:01:26;8.27;;;5.00;;
1428;SDS011;708;51.442;7.016;2022-08-30T03:03:59;5.75;;;4.45;;
1428;SDS011;708;51.442;7.016;2022-08-30T03:06:27;5.25;;;4.75;;
1428;SDS011;708;51.442;7.016;2022-08-30T03:08:54;9.48;;;4.25;;
1428;SDS011;708;51.442;7.016;2022-08-30T03:11:21;6.13;;;5.30;;
1428;SDS011;708;51.442;7.016;2022-08-30T03:13:48;5.38;;;4.80;;
1428;SDS011;708;51.442;7.016;2022-08-30T03:16:17;9.88;;;5.57;;
1428;SDS011;708;51.442;7.016;2022-08-30T03:18:45;5.15;;;4.65;;
1428;SDS011;708;51.442;7.016;2022-08-30T03:21:14;6.65;;;5.03;;
1428;SDS011;708;51.442;7.016;2022-08-30T03:23:43;5.72;;;4.97;;
1428;SDS011;708;51.442;7.016;2022-08-30T03:26:13;5.53;;;4.60;;
1428;SDS011;708;51.442;7.016;2022-08-30T03:28:40;6.07;;;4.88;;
1428;SDS011;708;51.442;7.016;2022-08-30T03:31:09;4.97;;;3.80;;
1428;SDS011;708;51.442;7.016;2022-08-30T03:33:37;5.78;;;4.43;;
1428;SDS011;708;51.442;7.016;2022-08-30T03:36:05;4.80;;;4.35;;
1428;SDS011;708;51.442;7.016;2022-08-30T03:38:33;7.57;;;5.30;;
1428;SDS011;708;51.442;7.016;2022-08-30T03:41:02;7.00;;;4.85;;
1428;SDS011;708;51.442;7.016;2022-08-30T03:43:30;8.93;;;5.65;;
1428;SDS011;708;51.442;7.016;2022-08-30T03:45:59;5.55;;;5.05;;
1428;SDS011;708;51.442;7.016;2022-08-30T03:48:27;7.70;;;5.10;;
1428;SDS011;708;51.442;7.016;2022-08-30T03:50:55;8.45;;;4.72;;
1428;SDS011;708;51.442;7.016;2022-08-30T03:53:22;7.05;;;5.30;;
1428;SDS011;708;51.442;7.016;2022-08-30T03:55:49;9.82;;;5.47;;
1428;SDS011;708;51.442;7.016;2022-08-30T03:58:17;7.93;;;5.10;;
1428;SDS011;708;51.442;7.016;2022-08-30T04:00:43;6.97;;;4.60;;
1428;SDS011;708;51.442;7.016;2022-08-30T04:03:10;5.97;;;5.47;;
1428;SDS011;708;51.442;7.016;2022-08-30T04:05:37;6.07;;;5.57;;
1428;SDS011;708;51.442;7.016;2022-08-30T04:08:06;6.85;;;4.90;;
1428;SDS011;708;51.442;7.016;2022-08-30T04:10:32;8.15;;;4.95;;
1428;SDS011;708;51.442;7.016;2022-08-30T04:13:00;6.22;;;5.07;;
1428;SDS011;708;51.442;7.016;2022-08-30T04:15:28;10.25;;;5.60;;
1428;SDS011;708;51.442;7.016;2022-08-30T04:17:54;13.48;;;5.82;;
1428;SDS011;708;51.442;7.016;2022-08-30T04:20:21;6.03;;;5.30;;
1428;SDS011;708;51.442;7.016;2022-08-30T04:22:51;5.40;;;4.75;;
1428;SDS011;708;51.442;7.016;2022-08-30T04:25:18;6.82;;;5.47;;
1428;SDS011;708;51.442;7.016;2022-08-30T04:27:45;9.05;;;6.13;;
1428;SDS011;708;51.442;7.016;2022-08-30T04:30:16;5.53;;;4.93;;
1428;SDS011;708;51.442;7.016;2022-08-30T04:32:44;8.40;;;5.55;;
1428;SDS011;708;51.442;7.016;2022-08-30T04:35:11;11.82;;;6.80;;
1428;SDS011;708;51.442;7.016;2022-08-30T04:37:39;6.40;;;5.90;;
1428;SDS011;708;51.442;7.016;2022-08-30T04:40:09;8.25;;;5.18;;
1428;SDS011;708;51.442;7.016;2022-08-30T04:42:38;6.60;;;6.00;;
1428;SDS011;708;51.442;7.016;2022-08-30T04:45:08;7.63;;;5.40;;
1428;SDS011;708;51.442;7.016;2022-08-30T04:47:40;6.15;;;5.55;;
1428;SDS011;708;51.442;7.016;2022-08-30T04:50:10;6.15;;;5.53;;
1428;SDS011;708;51.442;7.016;2022-08-30T04:52:38;6.07;;;5.47;;
1428;SDS011;708;51.442;7.016;2022-08-30T04:55:05;6.90;;;5.45;;
1428;SDS011;708;51.442;7.016;2022-08-30T04:57:34;7.07;;;5.78;;
1428;SDS011;708;51.442;7.016;2022-08-30T05:00:03;6.50;;;5.70;;
1428;SDS011;708;51.442;7.016;2022-08-30T05:02:32;7.45;;;6.32;;
1428;SDS011;708;51.442;7.016;2022-08-30T05:05:00;7.35;;;6.13;;
1428;SDS011;708;51.442;7.016;2022-08-30T05:07:51;6.65;;;6.05;;
1428;SDS011;708;51.442;7.016;2022-08-30T05:10:18;7.65;;;6.60;;
1428;SDS011;708;51.442;7.016;2022-08-30T05:12:47;6.55;;;5.95;;
1428;SDS011;708;51.442;7.016;2022-08-30T05:15:14;7.55;;;6.10;;
1428;SDS011;708;51.442;7.016;2022-08-30T05:17:41;8.25;;;5.60;;
1428;SDS011;708;51.442;7.016;2022-08-30T05:20:09;6.95;;;6.25;;
1428;SDS011;708;51.442;7.016;2022-08-30T05:22:38;7.47;;;6.28;;
1428;SDS011;708;51.442;7.016;2022-08-30T05:25:15;6.65;;;5.47;;
1428;SDS011;708;51.442;7.016;2022-08-30T05:27:43;7.03;;;5.82;;
1428;SDS011;708;51.442;7.016;2022-08-30T05:30:11;7.65;;;6.00;;
1428;SDS011;708;51.442;7.016;2022-08-30T05:32:40;6.03;;;5.40;;
1428;SDS011;708;51.442;7.016;2022-08-30T05:35:08;7.50;;;6.15;;
1428;SDS011;708;51.442;7.016;2022-08-30T05:37:38;8.70;;;6.70;;
1428;SDS011;708;51.442;7.016;2022-08-30T05:40:06;9.88;;;7.10;;
1428;SDS011;708;51.442;7.016;2022-08-30T05:42:36;7.13;;;6.50;;
1428;SDS011;708;51.442;7.016;2022-08-30T05:52:02;7.93;;;5.60;;
1428;SDS011;708;51.442;7.016;2022-08-30T05:54:39;7.60;;;6.78;;
1428;SDS011;708;51.442;7.016;2022-08-30T05:57:06;8.00;;;6.45;;
1428;SDS011;708;51.442;7.016;2022-08-30T05:59:43;6.57;;;5.85;;
1428;SDS011;708;51.442;7.016;2022-08-30T06:02:09;8.32;;;6.80;;
1428;SDS011;708;51.442;7.016;2022-08-30T06:04:41;8.63;;;6.20;;
1428;SDS011;708;51.442;7.016;2022-08-30T06:07:17;10.97;;;6.87;;
1428;SDS011;708;51.442;7.016;2022-08-30T06:09:43;7.10;;;6.40;;
1428;SDS011;708;51.442;7.016;2022-08-30T06:12:13;6.00;;;5.50;;
1428;SDS011;708;51.442;7.016;2022-08-30T06:14:42;8.63;;;6.27;;
1428;SDS011;708;51.442;7.016;2022-08-30T06:17:09;6.80;;;6.20;;
1428;SDS011;708;51.442;7.016;2022-08-30T06:19:38;9.90;;;5.53;;
1428;SDS011;708;51.442;7.016;2022-08-30T06:22:10;11.30;;;6.93;;
1428;SDS011;708;51.442;7.016;2022-08-30T06:24:40;7.40;;;6.30;;
1428;SDS011;708;51.442;7.016;2022-08-30T06:27:08;6.53;;;5.30;;
1428;SDS011;708;51.442;7.016;2022-08-30T06:29:35;8.77;;;5.60;;
1428;SDS011;708;51.442;7.016;2022-08-30T06:32:07;6.80;;;6.07;;
1428;SDS011;708;51.442;7.016;2022-08-30T06:34:34;11.23;;;6.10;;
1428;SDS011;708;51.442;7.016;2022-08-30T06:37:02;8.40;;;5.13;;
1428;SDS011;708;51.442;7.016;2022-08-30T06:39:29;12.90;;;6.87;;
1428;SDS011;708;51.442;7.016;2022-08-30T06:41:57;8.27;;;6.53;;
1428;SDS011;708;51.442;7.016;2022-08-30T06:44:24;6.80;;;5.90;;
1428;SDS011;708;51.442;7.016;2022-08-30T06:46:53;6.20;;;5.60;;
1428;SDS011;708;51.442;7.016;2022-08-30T06:49:21;6.47;;;5.70;;
1428;SDS011;708;51.442;7.016;2022-08-30T06:51:48;15.13;;;6.43;;
1428;SDS011;708;51.442;7.016;2022-08-30T06:54:15;5.90;;;5.40;;
1428;SDS011;708;51.442;7.016;2022-08-30T06:56:46;6.97;;;5.97;;
1428;SDS011;708;51.442;7.016;2022-08-30T06:59:15;9.40;;;6.60;;
1428;SDS011;708;51.442;7.016;2022-08-30T07:01:42;9.10;;;5.77;;
1428;SDS011;708;51.442;7.016;2022-08-30T07:04:09;6.37;;;5.87;;
1428;SDS011;708;51.442;7.016;2022-08-30T07:06:39;6.17;;;5.57;;
1428;SDS011;708;51.442;7.016;2022-08-30T07:09:08;6.70;;;5.83;;
1428;SDS011;708;51.442;7.016;2022-08-30T07:11:36;15.90;;;7.03;;
1428;SDS011;708;51.442;7.016;2022-08-30T07:14:06;7.03;;;6.43;;
1428;SDS011;708;51.442;7.016;2022-08-30T07:16:33;9.03;;;7.20;;
1428;SDS011;708;51.442;7.016;2022-08-30T07:19:05;6.23;;;5.63;;
1428;SDS011;708;51.442;7.016;2022-08-30T07:21:31;6.17;;;5.60;;
1428;SDS011;708;51.442;7.016;2022-08-30T07:24:05;7.43;;;6.00;;
1428;SDS011;708;51.442;7.016;2022-08-30T07:26:40;8.70;;;6.47;;
1428;SDS011;708;51.442;7.016;2022-08-30T07:29:13;7.90;;;6.20;;
1428;SDS011;708;51.442;7.016;2022-08-30T07:31:46;7.10;;;6.17;;
1428;SDS011;708;51.442;7.016;2022-08-30T07:34:15;6.67;;;6.07;;
1428;SDS011;708;51.442;7.016;2022-08-30T07:36:48;6.43;;;5.83;;
1428;SDS011;708;51.442;7.016;2022-08-30T07:39:29;7.20;;;5.83;;
1428;SDS011;708;51.442;7.016;2022-08-30T07:41:56;7.80;;;6.10;;
1428;SDS011;708;51.442;7.016;2022-08-30T07:44:24;7.40;;;6.63;;
1428;SDS011;708;51.442;7.016;2022-08-30T07:46:57;8.40;;;6.47;;
1428;SDS011;708;51.442;7.016;2022-08-30T07:49:24;7.50;;;5.90;;
1428;SDS011;708;51.442;7.016;2022-08-30T07:51:54;22.27;;;6.57;;
1428;SDS011;708;51.442;7.016;2022-08-30T07:54:29;5.97;;;5.47;;
1428;SDS011;708;51.442;7.016;2022-08-30T07:56:57;7.50;;;5.70;;
1428;SDS011;708;51.442;7.016;2022-08-30T07:59:26;7.50;;;6.40;;
1428;SDS011;708;51.442;7.016;2022-08-30T08:01:53;8.30;;;6.13;;
1428;SDS011;708;51.442;7.016;2022-08-30T08:04:20;21.13;;;7.47;;
1428;SDS011;708;51.442;7.016;2022-08-30T08:06:49;7.83;;;5.87;;
1428;SDS011;708;51.442;7.016;2022-08-30T08:09:40;7.53;;;6.17;;
1428;SDS011;708;51.442;7.016;2022-08-30T08:12:22;6.83;;;5.73;;
1428;SDS011;708;51.442;7.016;2022-08-30T08:14:49;11.50;;;6.77;;
1428;SDS011;708;51.442;7.016;2022-08-30T08:17:16;6.57;;;5.73;;
1428;SDS011;708;51.442;7.016;2022-08-30T08:19:43;6.63;;;5.87;;
1428;SDS011;708;51.442;7.016;2022-08-30T08:22:14;6.80;;;4.33;;
1428;SDS011;708;51.442;7.016;2022-08-30T08:45:23;7.13;;;4.20;;
1428;SDS011;708;51.442;7.016;2022-08-30T08:48:00;5.77;;;5.00;;
1428;SDS011;708;51.442;7.016;2022-08-30T08:50:29;6.30;;;4.97;;
1428;SDS011;708;51.442;7.016;2022-08-30T08:52:57;5.07;;;4.67;;
1428;SDS011;708;51.442;7.016;2022-08-30T08:55:48;8.60;;;5.20;;
1428;SDS011;708;51.442;7.016;2022-08-30T08:58:18;5.83;;;5.17;;
1428;SDS011;708;51.442;7.016;2022-08-30T09:00:51;6.70;;;5.00;;
1428;SDS011;708;51.442;7.016;2022-08-30T09:03:23;6.60;;;5.27;;
1428;SDS011;708;51.442;7.016;2022-08-30T09:05:57;6.77;;;5.77;;
1428;SDS011;708;51.442;7.016;2022-08-30T09:08:27;5.57;;;5.00;;
1428;SDS011;708;51.442;7.016;2022-08-30T09:11:05;8.60;;;4.00;;
1428;SDS011;708;51.442;7.016;2022-08-30T09:13:51;7.07;;;5.30;;
1428;SDS011;708;51.442;7.016;2022-08-30T09:16:47;5.67;;;4.70;;
1428;SDS011;708;51.442;7.016;2022-08-30T09:19:37;6.37;;;5.40;;
1428;SDS011;708;51.442;7.016;2022-08-30T09:22:17;7.03;;;5.10;;
1428;SDS011;708;51.442;7.016;2022-08-30T09:25:17;9.00;;;5.20;;
1428;SDS011;708;51.442;7.016;2022-08-30T09:27:51;6.53;;;5.13;;
1428;SDS011;708;51.442;7.016;2022-08-30T09:30:21;7.10;;;4.70;;
1428;SDS011;708;51.442;7.016;2022-08-30T09:32:52;6.63;;;5.10;;
1428;SDS011;708;51.442;7.016;2022-08-30T09:35:25;6.10;;;5.00;;
1428;SDS011;708;51.442;7.016;2022-08-30T09:38:15;6.30;;;5.73;;
1428;SDS011;708;51.442;7.016;2022-08-30T09:40:52;6.80;;;5.30;;
1428;SDS011;708;51.442;7.016;2022-08-30T09:43:33;8.03;;;4.67;;
1428;SDS011;708;51.442;7.016;2022-08-30T09:46:04;6.30;;;5.77;;
1428;SDS011;708;51.442;7.016;2022-08-30T09:48:38;6.40;;;4.90;;
1428;SDS011;708;51.442;7.016;2022-08-30T09:54:09;6.20;;;4.13;;
1428;SDS011;708;51.442;7.016;2022-08-30T09:56:49;5.83;;;4.73;;
1428;SDS011;708;51.442;7.016;2022-08-30T09:59:31;8.07;;;5.07;;
1428;SDS011;708;51.442;7.016;2022-08-30T10:02:05;5.73;;;4.53;;
1428;SDS011;708;51.442;7.016;2022-08-30T10:05:02;4.93;;;4.40;;
1428;SDS011;708;51.442;7.016;2022-08-30T10:07:39;7.47;;;5.53;;
1428;SDS011;708;51.442;7.016;2022-08-30T10:10:14;5.33;;;4.87;;
1428;SDS011;708;51.442;7.016;2022-08-30T10:12:51;7.30;;;5.20;;
1428;SDS011;708;51.442;7.016;2022-08-30T10:15:27;7.37;;;5.50;;
1428;SDS011;708;51.442;7.016;2022-08-30T10:18:07;6.67;;;4.60;;
1428;SDS011;708;51.442;7.016;2022-08-30T10:23:43;6.40;;;5.00;;
1428;SDS011;708;51.442;7.016;2022-08-30T10:26:23;6.53;;;4.60;;
1428;SDS011;708;51.442;7.016;2022-08-30T10:28:56;10.20;;;5.47;;
1428;SDS011;708;51.442;7.016;2022-08-30T10:31:30;6.43;;;5.40;;
1428;SDS011;708;51.442;7.016;2022-08-30T10:34:08;5.60;;;4.37;;
1428;SDS011;708;51.442;7.016;2022-08-30T10:36:44;11.27;;;4.40;;
1428;SDS011;708;51.442;7.016;2022-08-30T10:39:18;5.73;;;4.23;;
1428;SDS011;708;51.442;7.016;2022-08-30T10:42:10;8.03;;;5.20;;
1428;SDS011;708;51.442;7.016;2022-08-30T10:44:57;4.30;;;3.90;;
1428;SDS011;708;51.442;7.016;2022-08-30T10:47:35;5.70;;;3.67;;
1428;SDS011;708;51.442;7.016;2022-08-30T10:50:08;7.40;;;4.00;;
1428;SDS011;708;51.442;7.016;2022-08-30T10:52:42;4.53;;;3.30;;
1428;SDS011;708;51.442;7.016;2022-08-30T10:55:18;4.37;;;3.97;;
1428;SDS011;708;51.442;7.016;2022-08-30T10:57:48;6.03;;;4.30;;
1428;SDS011;708;51.442;7.016;2022-08-30T11:00:21;4.90;;;4.00;;
1428;SDS011;708;51.442;7.016;2022-08-30T11:05:55;4.83;;;4.33;;
1428;SDS011;708;51.442;7.016;2022-08-30T11:08:50;5.60;;;4.10;;
1428;SDS011;708;51.442;7.016;2022-08-30T11:11:38;5.80;;;3.53;;
1428;SDS011;708;51.442;7.016;2022-08-30T11:14:16;5.17;;;3.03;;
1428;SDS011;708;51.442;7.016;2022-08-30T11:16:47;4.73;;;3.83;;
1428;SDS011;708;51.442;7.016;2022-08-30T11:19:18;15.07;;;4.37;;
1428;SDS011;708;51.442;7.016;2022-08-30T11:21:47;13.37;;;5.70;;
1428;SDS011;708;51.442;7.016;2022-08-30T11:24:23;4.20;;;3.60;;
1428;SDS011;708;51.442;7.016;2022-08-30T11:26:57;4.80;;;4.13;;
1428;SDS011;708;51.442;7.016;2022-08-30T11:29:27;6.13;;;4.20;;
1428;SDS011;708;51.442;7.016;2022-08-30T11:32:22;5.63;;;3.50;;
1428;SDS011;708;51.442;7.016;2022-08-30T11:35:36;7.23;;;4.20;;
1428;SDS011;708;51.442;7.016;2022-08-30T11:38:12;6.87;;;4.73;;
1428;SDS011;708;51.442;7.016;2022-08-30T11:40:49;4.83;;;3.83;;
1428;SDS011;708;51.442;7.016;2022-08-30T11:43:52;6.70;;;4.03;;
1428;SDS011;708;51.442;7.016;2022-08-30T11:46:33;4.97;;;3.77;;
1428;SDS011;708;51.442;7.016;2022-08-30T11:49:21;5.07;;;4.33;;
1428;SDS011;708;51.442;7.016;2022-08-30T11:52:19;5.83;;;5.27;;
1428;SDS011;708;51.442;7.016;2022-08-30T11:55:17;5.80;;;3.90;;
1428;SDS011;708;51.442;7.016;2022-08-30T11:58:07;4.03;;;3.53;;
1428;SDS011;708;51.442;7.016;2022-08-30T12:00:44;4.00;;;3.60;;
1428;SDS011;708;51.442;7.016;2022-08-30T12:03:26;5.97;;;3.23;;
1428;SDS011;708;51.442;7.016;2022-08-30T12:05:59;7.33;;;4.23;;
1428;SDS011;708;51.442;7.016;2022-08-30T12:08:41;5.60;;;3.93;;
1428;SDS011;708;51.442;7.016;2022-08-30T12:14:36;4.33;;;3.90;;
1428;SDS011;708;51.442;7.016;2022-08-30T12:17:14;3.87;;;3.57;;
1428;SDS011;708;51.442;7.016;2022-08-30T12:20:10;5.53;;;3.50;;
1428;SDS011;708;51.442;7.016;2022-08-30T12:22:49;6.07;;;4.47;;
1428;SDS011;708;51.442;7.016;2022-08-30T12:25:27;6.03;;;3.90;;
1428;SDS011;708;51.442;7.016;2022-08-30T12:28:07;12.50;;;4.23;;
1428;SDS011;708;51.442;7.016;2022-08-30T12:30:37;15.03;;;4.30;;
1428;SDS011;708;51.442;7.016;2022-08-30T12:33:05;4.90;;;4.00;;
1428;SDS011;708;51.442;7.016;2022-08-30T12:35:38;6.57;;;4.07;;
1428;SDS011;708;51.442;7.016;2022-08-30T12:38:18;6.40;;;3.60;;
1428;SDS011;708;51.442;7.016;2022-08-30T12:40:50;3.70;;;3.40;;
1428;SDS011;708;51.442;7.016;2022-08-30T12:43:27;4.97;;;3.87;;
1428;SDS011;708;51.442;7.016;2022-08-30T12:46:03;4.73;;;4.20;;
1428;SDS011;708;51.442;7.016;2022-08-30T12:48:35;4.37;;;3.87;;
1428;SDS011;708;51.442;7.016;2022-08-30T12:51:04;5.30;;;3.50;;
1428;SDS011;708;51.442;7.016;2022-08-30T12:53:32;5.47;;;3.30;;
1428;SDS011;708;51.442;7.016;2022-08-30T12:56:02;5.73;;;3.50;;
1428;SDS011;708;51.442;7.016;2022-08-30T12:58:38;4.63;;;3.67;;
1428;SDS011;708;51.442;7.016;2022-08-30T13:01:16;4.10;;;3.70;;
1428;SDS011;708;51.442;7.016;2022-08-30T13:03:53;8.40;;;4.07;;
1428;SDS011;708;51.442;7.016;2022-08-30T13:06:38;6.37;;;4.10;;
1428;SDS011;708;51.442;7.016;2022-08-30T13:09:21;7.00;;;4.27;;
1428;SDS011;708;51.442;7.016;2022-08-30T13:11:52;6.77;;;4.17;;
1428;SDS011;708;51.442;7.016;2022-08-30T13:14:27;6.80;;;3.40;;
1428;SDS011;708;51.442;7.016;2022-08-30T13:17:18;4.00;;;3.40;;
1428;SDS011;708;51.442;7.016;2022-08-30T13:19:55;5.30;;;3.43;;
1428;SDS011;708;51.442;7.016;2022-08-30T13:22:30;4.73;;;3.40;;
1428;SDS011;708;51.442;7.016;2022-08-30T13:24:59;5.20;;;4.00;;
1428;SDS011;708;51.442;7.016;2022-08-30T13:27:27;4.13;;;3.37;;
1428;SDS011;708;51.442;7.016;2022-08-30T13:30:05;7.93;;;3.77;;
1428;SDS011;708;51.442;7.016;2022-08-30T13:32:37;4.00;;;3.60;;
1428;SDS011;708;51.442;7.016;2022-08-30T13:35:07;4.80;;;3.63;;
1428;SDS011;708;51.442;7.016;2022-08-30T13:37:36;6.80;;;4.23;;
1428;SDS011;708;51.442;7.016;2022-08-30T13:40:06;3.60;;;3.30;;
1428;SDS011;708;51.442;7.016;2022-08-30T13:42:34;6.40;;;3.47;;
1428;SDS011;708;51.442;7.016;2022-08-30T13:45:02;3.50;;;3.20;;
1428;SDS011;708;51.442;7.016;2022-08-30T13:47:29;4.07;;;2.97;;
1428;SDS011;708;51.442;7.016;2022-08-30T13:49:57;5.90;;;4.07;;
1428;SDS011;708;51.442;7.016;2022-08-30T13:52:24;3.83;;;3.43;;
1428;SDS011;708;51.442;7.016;2022-08-30T13:54:52;5.00;;;3.50;;
1428;SDS011;708;51.442;7.016;2022-08-30T13:57:22;5.03;;;3.20;;
1428;SDS011;708;51.442;7.016;2022-08-30T13:59:50;5.50;;;2.97;;
1428;SDS011;708;51.442;7.016;2022-08-30T14:02:19;3.90;;;3.50;;
1428;SDS011;708;51.442;7.016;2022-08-30T14:04:46;4.70;;;3.70;;
1428;SDS011;708;51.442;7.016;2022-08-30T14:07:14;6.37;;;3.20;;
1428;SDS011;708;51.442;7.016;2022-08-30T14:09:42;4.07;;;3.10;;
1428;SDS011;708;51.442;7.016;2022-08-30T14:12:08;4.87;;;3.13;;
1428;SDS011;708;51.442;7.016;2022-08-30T14:14:35;6.60;;;3.53;;
1428;SDS011;708;51.442;7.016;2022-08-30T14:17:02;11.63;;;3.40;;
1428;SDS011;708;51.442;7.016;2022-08-30T14:19:29;4.97;;;3.50;;
1428;SDS011;708;51.442;7.016;2022-08-30T14:21:57;3.93;;;3.27;;
1428;SDS011;708;51.442;7.016;2022-08-30T14:24:26;5.90;;;3.40;;
1428;SDS011;708;51.442;7.016;2022-08-30T14:26:55;4.80;;;3.50;;
1428;SDS011;708;51.442;7.016;2022-08-30T14:29:23;8.60;;;3.67;;
1428;SDS011;708;51.442;7.016;2022-08-30T14:31:54;10.27;;;3.20;;
1428;SDS011;708;51.442;7.016;2022-08-30T14:34:21;3.63;;;2.83;;
1428;SDS011;708;51.442;7.016;2022-08-30T14:36:48;3.70;;;3.40;;
1428;SDS011;708;51.442;7.016;2022-08-30T14:39:19;5.17;;;3.80;;
1428;SDS011;708;51.442;7.016;2022-08-30T14:41:51;3.77;;;3.37;;
1428;SDS011;708;51.442;7.016;2022-08-30T14:44:37;4.30;;;3.27;;
1428;SDS011;708;51.442;7.016;2022-08-30T14:47:07;4.17;;;3.00;;
1428;SDS011;708;51.442;7.016;2022-08-30T14:49:34;6.30;;;3.07;;
1428;SDS011;708;51.442;7.016;2022-08-30T14:52:02;6.10;;;3.50;;
1428;SDS011;708;51.442;7.016;2022-08-30T14:54:29;4.47;;;3.40;;
1428;SDS011;708;51.442;7.016;2022-08-30T14:57:00;5.10;;;3.20;;
1428;SDS011;708;51.442;7.016;2022-08-30T14:59:27;8.73;;;3.37;;
1428;SDS011;708;51.442;7.016;2022-08-30T15:01:54;5.43;;;3.83;;
1428;SDS011;708;51.442;7.016;2022-08-30T15:04:23;6.43;;;3.60;;
1428;SDS011;708;51.442;7.016;2022-08-30T15:06:51;4.70;;;3.47;;
1428;SDS011;708;51.442;7.016;2022-08-30T15:09:19;3.50;;;3.20;;
1428;SDS011;708;51.442;7.016;2022-08-30T15:11:47;4.43;;;3.50;;
1428;SDS011;708;51.442;7.016;2022-08-30T15:14:16;5.10;;;4.00;;
1428;SDS011;708;51.442;7.016;2022-08-30T15:16:43;5.93;;;3.37;;
1428;SDS011;708;51.442;7.016;2022-08-30T15:19:14;4.90;;;3.40;;
1428;SDS011;708;51.442;7.016;2022-08-30T15:21:42;6.17;;;3.20;;
1428;SDS011;708;51.442;7.016;2022-08-30T15:24:11;5.97;;;3.20;;
1428;SDS011;708;51.442;7.016;2022-08-30T15:26:42;7.37;;;2.83;;
1428;SDS011;708;51.442;7.016;2022-08-30T15:32:40;6.10;;;3.53;;
1428;SDS011;708;51.442;7.016;2022-08-30T15:35:09;3.57;;;2.93;;
1428;SDS011;708;51.442;7.016;2022-08-30T15:37:36;2.67;;;2.40;;
1428;SDS011;708;51.442;7.016;2022-08-30T15:40:04;5.07;;;3.00;;
1428;SDS011;708;51.442;7.016;2022-08-30T15:42:32;3.63;;;2.77;;
1428;SDS011;708;51.442;7.016;2022-08-30T15:45:01;3.53;;;2.70;;
1428;SDS011;708;51.442;7.016;2022-08-30T15:47:28;3.37;;;3.07;;
1428;SDS011;708;51.442;7.016;2022-08-30T15:49:57;3.73;;;3.20;;
1428;SDS011;708;51.442;7.016;2022-08-30T15:52:26;5.73;;;2.53;;
1428;SDS011;708;51.442;7.016;2022-08-30T15:54:53;3.37;;;3.07;;
1428;SDS011;708;51.442;7.016;2022-08-30T15:57:20;4.10;;;2.87;;
1428;SDS011;708;51.442;7.016;2022-08-30T15:59:47;3.43;;;3.13;;
1428;SDS011;708;51.442;7.016;2022-08-30T16:02:17;4.20;;;3.13;;
1428;SDS011;708;51.442;7.016;2022-08-30T16:04:44;3.47;;;2.67;;
1428;SDS011;708;51.442;7.016;2022-08-30T16:07:13;3.60;;;3.07;;
1428;SDS011;708;51.442;7.016;2022-08-30T16:09:44;3.67;;;3.20;;
1428;SDS011;708;51.442;7.016;2022-08-30T16:12:11;6.10;;;2.93;;
1428;SDS011;708;51.442;7.016;2022-08-30T16:14:38;3.20;;;2.90;;
1428;SDS011;708;51.442;7.016;2022-08-30T16:17:05;3.47;;;2.83;;
1428;SDS011;708;51.442;7.016;2022-08-30T16:19:36;5.87;;;3.00;;
1428;SDS011;708;51.442;7.016;2022-08-30T16:22:56;3.63;;;3.00;;
1428;SDS011;708;51.442;7.016;2022-08-30T16:25:49;4.00;;;3.23;;
1428;SDS011;708;51.442;7.016;2022-08-30T16:28:18;4.30;;;2.60;;
1428;SDS011;708;51.442;7.016;2022-08-30T16:30:48;3.10;;;2.80;;
1428;SDS011;708;51.442;7.016;2022-08-30T16:33:15;4.30;;;2.87;;
1428;SDS011;708;51.442;7.016;2022-08-30T16:35:47;5.00;;;3.10;;
1428;SDS011;708;51.442;7.016;2022-08-30T16:38:15;5.50;;;3.70;;
1428;SDS011;708;51.442;7.016;2022-08-30T16:40:42;4.47;;;3.40;;